Time;durP1;ratioP1;P1;durP2;ratioP2;P2;SDS_P1;SDS_P2;PMS_P1;PMS_P2;Temp;Humidity;BMP_temperature;BMP_pressure;BME280_temperature;BME280_humidity;BME280_pressure;Samples;Min_cycle;Max_cycle;Signal;HPM_P1;HPM_P2
2023/08/21 00:01:34;;;;;;;11.93;3.53;;;14.30;99.90;;;;;;5047690;28;20057;-61
2023/08/21 00:04:02;;;;;;;8.90;3.10;;;14.20;99.90;;;;;;5047385;28;20041;-61
2023/08/21 00:06:31;;;;;;;6.40;3.10;;;14.20;99.90;;;;;;5045967;28;20045;-63
2023/08/21 00:08:59;;;;;;;7.30;3.40;;;14.20;99.90;;;;;;5049778;28;20507;-62
2023/08/21 00:11:27;;;;;;;9.07;3.20;;;14.10;99.90;;;;;;5059092;28;20049;-62
2023/08/21 00:13:55;;;;;;;9.32;2.50;;;14.10;99.90;;;;;;5047913;28;20496;-62
2023/08/21 00:16:23;;;;;;;7.90;2.47;;;14.00;99.90;;;;;;5048265;28;20053;-62
2023/08/21 00:18:51;;;;;;;7.20;2.10;;;14.00;99.90;;;;;;5044353;28;20044;-61
2023/08/21 00:21:21;;;;;;;8.38;2.33;;;14.00;99.90;;;;;;5048228;28;20056;-62
2023/08/21 00:23:49;;;;;;;6.38;1.90;;;13.90;99.90;;;;;;5041479;28;20037;-61
2023/08/21 00:26:17;;;;;;;6.57;2.20;;;13.90;99.90;;;;;;5048203;28;20408;-61
2023/08/21 00:28:45;;;;;;;7.10;2.05;;;13.90;99.90;;;;;;5046964;28;20048;-62
2023/08/21 00:31:13;;;;;;;9.35;2.25;;;13.80;99.90;;;;;;5047941;28;20041;-61
2023/08/21 00:33:41;;;;;;;5.60;1.90;;;13.80;99.90;;;;;;5046638;28;20051;-62
2023/08/21 00:36:09;;;;;;;8.02;1.90;;;13.80;99.90;;;;;;5043887;28;20041;-62
2023/08/21 00:38:37;;;;;;;10.02;2.22;;;13.70;99.90;;;;;;5038374;28;20052;-61
2023/08/21 00:41:05;;;;;;;6.35;1.58;;;13.80;99.90;;;;;;5036553;28;20053;-61
2023/08/21 00:43:32;;;;;;;13.65;2.17;;;13.70;99.90;;;;;;5035292;28;20052;-62
2023/08/21 00:46:03;;;;;;;8.20;1.70;;;13.70;99.90;;;;;;5045939;28;20049;-62
2023/08/21 00:48:31;;;;;;;5.95;1.30;;;13.60;99.90;;;;;;5045370;28;20494;-61
2023/08/21 00:51:02;;;;;;;5.55;1.77;;;13.60;99.90;;;;;;5045756;28;20052;-61
2023/08/21 00:53:30;;;;;;;8.13;1.60;;;13.60;99.90;;;;;;5047499;28;20045;-62
2023/08/21 00:55:58;;;;;;;7.25;1.70;;;13.60;99.90;;;;;;5047352;28;20041;-61
2023/08/21 00:58:27;;;;;;;6.65;1.88;;;13.50;99.90;;;;;;5045632;28;20040;-62
2023/08/21 01:00:54;;;;;;;8.43;2.47;;;13.50;99.90;;;;;;5046488;28;20048;-62
2023/08/21 01:03:22;;;;;;;11.68;2.00;;;13.50;99.90;;;;;;5038745;28;20516;-62
2023/08/21 01:05:54;;;;;;;8.25;2.00;;;13.50;99.90;;;;;;5007266;28;20045;-62
2023/08/21 01:08:26;;;;;;;7.65;1.92;;;13.60;99.90;;;;;;5047583;28;20059;-62
2023/08/21 01:11:28;;;;;;;10.45;1.60;;;13.40;99.90;;;;;;5066164;28;20056;-61
2023/08/21 01:14:21;;;;;;;10.55;1.63;;;13.40;99.90;;;;;;5041525;28;20061;-62
2023/08/21 01:16:55;;;;;;;5.03;1.80;;;13.40;99.90;;;;;;5030320;28;20408;-61
2023/08/21 01:19:37;;;;;;;3.38;2.13;;;13.40;99.90;;;;;;5047043;28;20049;-62
2023/08/21 01:22:05;;;;;;;6.13;1.50;;;13.30;99.90;;;;;;5035213;28;20060;-62
2023/08/21 01:24:33;;;;;;;5.35;1.63;;;13.30;99.90;;;;;;5049353;28;20041;-61
2023/08/21 01:27:01;;;;;;;5.13;1.30;;;13.30;99.90;;;;;;5050074;28;20492;-61
2023/08/21 01:29:30;;;;;;;7.60;1.70;;;13.20;99.90;;;;;;5050922;28;20060;-61
2023/08/21 01:32:25;;;;;;;7.85;1.70;;;13.20;99.90;;;;;;5024277;28;20058;-61
2023/08/21 01:34:55;;;;;;;6.97;1.80;;;13.20;99.90;;;;;;5034621;28;20393;-61
2023/08/21 01:37:25;;;;;;;6.68;1.50;;;13.10;99.90;;;;;;5034665;28;20508;-62
2023/08/21 01:39:57;;;;;;;5.70;1.70;;;13.10;99.90;;;;;;5066588;28;20489;-62
2023/08/21 01:42:25;;;;;;;8.20;1.60;;;13.10;99.90;;;;;;5036498;28;20045;-61
2023/08/21 01:44:52;;;;;;;6.35;1.70;;;13.00;99.90;;;;;;5053280;28;20041;-61
2023/08/21 01:47:20;;;;;;;7.28;2.10;;;13.00;99.90;;;;;;5051919;28;20045;-61
2023/08/21 01:49:48;;;;;;;5.72;1.60;;;13.00;99.90;;;;;;5036646;28;20045;-61
2023/08/21 01:52:17;;;;;;;4.32;2.03;;;13.00;99.90;;;;;;5050424;28;20060;-61
2023/08/21 01:54:44;;;;;;;6.63;1.42;;;13.00;99.90;;;;;;5034986;28;20041;-61
2023/08/21 01:57:12;;;;;;;14.02;2.08;;;13.00;99.90;;;;;;5051950;28;20695;-61
2023/08/21 01:59:40;;;;;;;7.07;1.52;;;13.00;99.90;;;;;;5051455;28;20496;-62
2023/08/21 02:02:08;;;;;;;7.10;1.90;;;13.00;99.90;;;;;;5051073;28;20041;-61
2023/08/21 02:04:36;;;;;;;7.32;2.17;;;13.00;99.90;;;;;;5048828;28;20041;-61
2023/08/21 02:07:03;;;;;;;7.95;1.80;;;13.00;99.90;;;;;;5052090;28;20064;-61
2023/08/21 02:09:31;;;;;;;7.40;1.75;;;12.90;99.90;;;;;;5051998;28;20488;-61
2023/08/21 02:11:59;;;;;;;7.03;1.50;;;13.00;99.90;;;;;;5032995;28;20045;-61
2023/08/21 02:14:26;;;;;;;7.53;2.03;;;13.00;99.90;;;;;;5052840;28;20057;-62
2023/08/21 02:16:55;;;;;;;10.45;1.80;;;12.90;99.90;;;;;;5053775;28;20044;-62
2023/08/21 02:19:22;;;;;;;9.63;2.28;;;12.90;99.90;;;;;;5053328;28;20056;-61
2023/08/21 02:21:50;;;;;;;5.38;1.85;;;12.90;99.90;;;;;;5052429;28;20049;-61
2023/08/21 02:24:18;;;;;;;7.18;2.05;;;12.80;99.90;;;;;;5051861;28;20063;-61
2023/08/21 02:26:46;;;;;;;8.75;1.65;;;12.80;99.90;;;;;;5053785;28;20053;-61
2023/08/21 02:29:13;;;;;;;7.90;1.83;;;12.80;99.90;;;;;;5052949;28;20119;-62
2023/08/21 02:31:42;;;;;;;7.53;1.80;;;12.70;99.90;;;;;;5052093;28;20488;-61
2023/08/21 02:34:09;;;;;;;9.32;1.63;;;12.70;99.90;;;;;;5049511;28;20063;-62
2023/08/21 02:36:38;;;;;;;11.40;2.40;;;12.70;99.90;;;;;;5053825;28;20052;-62
2023/08/21 02:39:05;;;;;;;6.70;2.22;;;12.70;99.90;;;;;;5053271;28;20492;-63
2023/08/21 02:41:33;;;;;;;10.45;2.10;;;12.70;99.90;;;;;;5069855;28;20048;-61
2023/08/21 02:44:01;;;;;;;6.85;2.05;;;12.70;99.90;;;;;;5055671;28;20052;-62
2023/08/21 02:46:28;;;;;;;6.82;2.00;;;12.70;99.90;;;;;;5052793;28;20377;-62
2023/08/21 02:48:56;;;;;;;10.20;2.13;;;12.70;99.90;;;;;;5052146;28;20045;-62
2023/08/21 02:51:24;;;;;;;8.25;1.67;;;12.70;99.90;;;;;;5052949;28;20052;-62
2023/08/21 02:53:51;;;;;;;10.25;2.40;;;12.70;99.90;;;;;;5053210;28;20408;-61
2023/08/21 02:56:19;;;;;;;8.35;1.67;;;12.70;99.90;;;;;;5052176;28;20037;-61
2023/08/21 02:58:47;;;;;;;7.38;1.75;;;12.60;99.90;;;;;;5052654;28;20052;-60
2023/08/21 03:01:15;;;;;;;7.00;1.80;;;12.60;99.90;;;;;;5052952;28;20048;-61
2023/08/21 03:03:43;;;;;;;7.68;2.05;;;12.60;99.90;;;;;;5051306;28;20033;-61
2023/08/21 03:06:10;;;;;;;10.90;2.30;;;12.50;99.90;;;;;;5048997;28;20049;-61
2023/08/21 03:08:38;;;;;;;8.73;1.90;;;12.50;99.90;;;;;;5051917;28;20476;-61
2023/08/21 03:11:05;;;;;;;8.23;1.88;;;12.50;99.90;;;;;;5064600;28;20044;-61
2023/08/21 03:13:33;;;;;;;9.13;2.22;;;12.50;99.90;;;;;;5061137;28;20057;-62
2023/08/21 03:16:01;;;;;;;7.35;1.73;;;12.50;99.90;;;;;;5051285;28;20059;-60
2023/08/21 03:18:31;;;;;;;5.25;1.80;;;12.50;99.90;;;;;;5051324;28;20045;-60
2023/08/21 03:20:59;;;;;;;5.65;1.70;;;12.40;99.90;;;;;;5049992;28;20041;-61
2023/08/21 03:23:27;;;;;;;8.57;1.90;;;12.40;99.90;;;;;;5051443;28;20049;-60
2023/08/21 03:25:54;;;;;;;9.27;1.60;;;12.40;99.90;;;;;;5050933;28;20634;-61
2023/08/21 03:28:22;;;;;;;3.13;1.50;;;12.30;99.90;;;;;;5052574;28;20052;-60
2023/08/21 03:30:52;;;;;;;11.82;2.13;;;12.30;99.90;;;;;;5052432;28;20045;-60
2023/08/21 03:33:20;;;;;;;6.13;2.00;;;12.30;99.90;;;;;;5050490;28;20500;-60
2023/08/21 03:35:54;;;;;;;5.65;1.95;;;12.30;99.90;;;;;;5048939;28;20388;-60
2023/08/21 03:38:24;;;;;;;7.45;2.35;;;12.30;99.90;;;;;;5050482;28;20064;-60
2023/08/21 03:40:51;;;;;;;13.55;2.55;;;12.30;99.90;;;;;;5063198;28;20049;-60
2023/08/21 03:43:19;;;;;;;10.75;3.17;;;12.30;99.90;;;;;;5055651;28;20055;-60
2023/08/21 03:45:46;;;;;;;9.23;3.10;;;12.30;99.90;;;;;;5050909;28;20412;-60
2023/08/21 03:48:14;;;;;;;14.55;3.33;;;12.30;99.90;;;;;;5050288;28;20049;-60
2023/08/21 03:50:42;;;;;;;12.95;3.13;;;12.40;99.90;;;;;;5050937;28;20060;-60
2023/08/21 03:53:09;;;;;;;17.02;2.67;;;12.40;99.90;;;;;;5050144;28;20048;-60
2023/08/21 03:55:37;;;;;;;11.35;3.22;;;12.40;99.90;;;;;;5050832;28;20045;-60
2023/08/21 03:58:05;;;;;;;11.13;3.03;;;12.50;99.90;;;;;;5049803;28;20048;-59
2023/08/21 04:00:32;;;;;;;10.25;2.88;;;12.50;99.90;;;;;;5051901;28;20041;-60
2023/08/21 04:03:00;;;;;;;14.50;3.05;;;12.50;99.90;;;;;;5051060;28;20038;-60
2023/08/21 04:05:28;;;;;;;12.00;2.95;;;12.50;99.90;;;;;;5048616;28;20045;-60
2023/08/21 04:07:56;;;;;;;16.25;3.15;;;12.50;99.90;;;;;;5034158;28;20049;-60
2023/08/21 04:10:24;;;;;;;9.27;2.60;;;12.50;99.90;;;;;;5057809;28;20048;-60
2023/08/21 04:12:51;;;;;;;8.25;2.63;;;12.60;99.90;;;;;;5066621;28;20048;-60
2023/08/21 04:15:19;;;;;;;11.25;3.33;;;12.50;99.90;;;;;;5049609;28;20044;-60
2023/08/21 04:17:47;;;;;;;11.00;2.50;;;12.50;99.90;;;;;;5050344;28;20056;-60
2023/08/21 04:20:14;;;;;;;11.13;2.67;;;12.60;99.90;;;;;;5049690;28;20055;-60
2023/08/21 04:22:42;;;;;;;6.45;2.40;;;12.60;99.90;;;;;;5050337;28;20036;-60
2023/08/21 04:25:11;;;;;;;12.05;3.15;;;12.60;99.90;;;;;;5051501;28;20473;-59
2023/08/21 04:27:38;;;;;;;9.57;2.97;;;12.60;99.90;;;;;;5049546;28;20152;-59
2023/08/21 04:30:07;;;;;;;11.10;2.83;;;12.60;99.90;;;;;;5046457;28;20037;-59
2023/08/21 04:32:35;;;;;;;9.80;2.65;;;12.60;99.90;;;;;;5045967;28;20052;-60
2023/08/21 04:35:05;;;;;;;13.82;3.40;;;12.60;99.90;;;;;;5051320;28;20052;-59
2023/08/21 04:37:32;;;;;;;10.32;2.60;;;12.60;99.90;;;;;;5049428;28;20048;-59
2023/08/21 04:40:01;;;;;;;10.07;2.47;;;12.60;99.90;;;;;;5054292;28;20045;-59
2023/08/21 04:42:29;;;;;;;13.82;3.47;;;12.60;99.90;;;;;;5062720;28;20508;-59
2023/08/21 04:44:57;;;;;;;7.85;2.47;;;12.50;99.90;;;;;;5049790;28;20045;-59
2023/08/21 04:47:32;;;;;;;16.00;2.90;;;12.60;99.90;;;;;;5042208;28;20048;-59
2023/08/21 04:50:00;;;;;;;14.38;3.33;;;12.60;99.90;;;;;;5044322;28;20497;-60
2023/08/21 04:52:30;;;;;;;8.82;3.17;;;12.60;99.90;;;;;;5027528;28;20049;-60
2023/08/21 04:54:59;;;;;;;13.10;2.53;;;12.50;99.90;;;;;;5045437;28;20053;-59
2023/08/21 04:57:29;;;;;;;17.15;2.90;;;12.50;99.90;;;;;;5046183;28;20760;-60
2023/08/21 04:59:58;;;;;;;10.23;2.33;;;12.50;99.90;;;;;;5045463;28;20041;-60
2023/08/21 05:02:33;;;;;;;10.88;3.00;;;12.50;99.90;;;;;;5039100;28;20045;-60
2023/08/21 05:05:01;;;;;;;11.93;2.60;;;12.40;99.90;;;;;;5041929;28;20626;-59
2023/08/21 05:07:29;;;;;;;10.88;2.97;;;12.40;99.90;;;;;;5035155;28;20527;-59
2023/08/21 05:10:00;;;;;;;8.82;2.63;;;12.40;99.90;;;;;;5046093;28;20079;-60
2023/08/21 05:12:31;;;;;;;16.83;2.67;;;12.40;99.90;;;;;;5021225;28;20044;-60
2023/08/21 05:14:59;;;;;;;17.00;2.25;;;12.40;99.90;;;;;;5042592;28;20045;-58
2023/08/21 05:17:27;;;;;;;8.65;2.00;;;12.30;99.90;;;;;;5028592;28;20051;-60
2023/08/21 05:19:55;;;;;;;8.38;2.72;;;12.30;99.90;;;;;;5047539;28;20040;-60
2023/08/21 05:22:23;;;;;;;10.45;2.75;;;12.30;99.90;;;;;;5046888;28;20411;-60
2023/08/21 05:24:51;;;;;;;8.00;2.33;;;12.30;99.90;;;;;;5028733;28;20049;-60
2023/08/21 05:27:19;;;;;;;6.70;2.33;;;12.30;99.90;;;;;;5042192;28;20060;-60
2023/08/21 05:29:49;;;;;;;6.40;2.65;;;12.30;99.90;;;;;;5043245;28;20583;-60
2023/08/21 05:32:17;;;;;;;9.82;2.60;;;12.30;99.90;;;;;;5046091;28;20053;-60
2023/08/21 05:34:45;;;;;;;12.00;2.72;;;12.30;99.90;;;;;;5042636;28;20053;-60
2023/08/21 05:37:13;;;;;;;8.85;2.40;;;12.30;99.90;;;;;;5040973;28;20041;-61
2023/08/21 05:39:41;;;;;;;8.07;2.72;;;12.20;99.90;;;;;;5026628;28;20485;-60
2023/08/21 05:42:08;;;;;;;8.20;2.70;;;12.30;99.90;;;;;;5062824;28;20243;-60
2023/08/21 05:44:37;;;;;;;18.95;2.60;;;12.30;99.90;;;;;;5048180;28;20041;-60
2023/08/21 05:47:05;;;;;;;13.45;3.47;;;12.20;99.90;;;;;;5043853;28;20587;-60
2023/08/21 05:49:33;;;;;;;9.18;2.65;;;12.30;99.90;;;;;;5042062;28;20065;-60
2023/08/21 05:52:01;;;;;;;10.98;3.47;;;12.30;99.90;;;;;;5042290;28;20060;-60
2023/08/21 05:54:30;;;;;;;14.50;3.00;;;12.30;99.90;;;;;;5012113;28;20495;-60
2023/08/21 05:56:59;;;;;;;15.15;3.92;;;12.30;99.90;;;;;;5047972;28;20046;-60
2023/08/21 05:59:31;;;;;;;16.15;4.20;;;12.40;99.90;;;;;;5048821;28;20044;-60
2023/08/21 06:02:01;;;;;;;12.27;2.70;;;12.40;99.90;;;;;;5041819;28;20048;-60
2023/08/21 06:04:31;;;;;;;10.32;3.38;;;12.50;99.90;;;;;;5052269;28;20401;-60
2023/08/21 06:07:03;;;;;;;13.68;3.60;;;12.60;99.90;;;;;;5041453;28;20072;-60
2023/08/21 06:09:33;;;;;;;12.65;2.90;;;12.60;99.90;;;;;;5049395;28;20125;-60
2023/08/21 06:12:04;;;;;;;16.70;4.10;;;12.60;99.90;;;;;;5042445;28;20045;-60
2023/08/21 06:14:33;;;;;;;12.57;2.95;;;12.70;99.90;;;;;;5064137;28;20052;-60
2023/08/21 06:17:03;;;;;;;11.18;3.25;;;12.80;99.90;;;;;;5058741;28;20095;-60
2023/08/21 06:19:32;;;;;;;12.10;3.30;;;12.90;99.90;;;;;;5045925;28;20037;-60
2023/08/21 06:22:00;;;;;;;10.80;3.25;;;13.00;99.90;;;;;;5019214;28;20048;-60
2023/08/21 06:24:28;;;;;;;15.75;2.78;;;13.00;99.90;;;;;;5032606;28;20045;-60
2023/08/21 06:27:01;;;;;;;6.35;2.90;;;13.10;99.90;;;;;;5048621;28;20040;-60
2023/08/21 06:29:29;;;;;;;14.57;3.15;;;13.10;99.90;;;;;;5049600;28;20507;-60
2023/08/21 06:31:57;;;;;;;9.60;3.50;;;13.20;99.90;;;;;;5049327;28;20044;-60
2023/08/21 06:34:25;;;;;;;11.77;3.53;;;13.30;99.90;;;;;;5054390;28;20041;-60
2023/08/21 06:36:53;;;;;;;10.52;3.85;;;13.40;99.90;;;;;;5041827;28;20041;-60
2023/08/21 06:39:21;;;;;;;11.38;2.65;;;13.40;99.90;;;;;;5047464;28;20507;-60
2023/08/21 06:41:50;;;;;;;9.45;3.65;;;13.50;99.90;;;;;;5066864;28;20761;-60
2023/08/21 06:44:20;;;;;;;11.90;3.28;;;13.60;99.90;;;;;;5031126;28;20052;-60
2023/08/21 06:46:48;;;;;;;14.90;2.90;;;13.60;99.90;;;;;;5048651;28;20471;-60
2023/08/21 06:49:16;;;;;;;10.65;2.53;;;13.70;99.90;;;;;;5048818;28;20056;-60
2023/08/21 06:51:44;;;;;;;8.55;2.22;;;13.70;99.90;;;;;;5048339;28;20041;-61
2023/08/21 06:54:12;;;;;;;11.80;2.97;;;13.80;99.90;;;;;;5048533;28;20045;-60
2023/08/21 06:56:40;;;;;;;11.10;2.75;;;13.90;99.90;;;;;;5052367;28;20072;-64
2023/08/21 06:59:07;;;;;;;13.77;3.55;;;14.00;99.90;;;;;;5050800;28;20396;-60
2023/08/21 07:01:35;;;;;;;15.68;2.95;;;14.10;99.90;;;;;;5042600;28;20049;-61
2023/08/21 07:04:06;;;;;;;11.80;2.58;;;14.20;99.90;;;;;;5040344;28;20037;-61
2023/08/21 07:06:34;;;;;;;11.20;2.25;;;14.40;99.90;;;;;;5047041;28;20055;-61
2023/08/21 07:09:02;;;;;;;13.93;3.03;;;14.30;99.90;;;;;;5044496;28;20507;-60
2023/08/21 07:11:30;;;;;;;11.30;2.92;;;14.40;99.90;;;;;;5031299;28;20059;-61
2023/08/21 07:13:57;;;;;;;14.02;3.05;;;14.50;99.90;;;;;;5057770;28;20045;-61
2023/08/21 07:16:26;;;;;;;10.88;3.03;;;14.60;99.90;;;;;;5052458;28;20053;-61
2023/08/21 07:18:54;;;;;;;14.75;3.50;;;14.70;99.90;;;;;;5026943;28;20476;-63
2023/08/21 07:21:21;;;;;;;9.27;2.72;;;14.80;99.90;;;;;;5045939;28;20052;-63
2023/08/21 07:24:00;;;;;;;7.90;3.03;;;14.90;99.90;;;;;;5037491;28;20426;-63
2023/08/21 07:26:28;;;;;;;15.68;3.83;;;15.00;99.90;;;;;;5032813;28;20049;-64
2023/08/21 07:28:56;;;;;;;13.00;3.55;;;15.00;99.90;;;;;;5031930;28;20053;-62
2023/08/21 07:31:23;;;;;;;12.95;3.20;;;15.10;99.90;;;;;;5039468;28;20041;-62
2023/08/21 07:33:51;;;;;;;14.88;3.85;;;15.20;99.90;;;;;;5045918;28;20053;-61
2023/08/21 07:36:19;;;;;;;14.85;3.33;;;15.30;99.90;;;;;;5034928;28;20064;-61
2023/08/21 07:38:47;;;;;;;14.55;3.58;;;15.30;99.90;;;;;;5052956;28;20052;-61
2023/08/21 07:41:14;;;;;;;15.38;4.28;;;15.40;99.90;;;;;;5046092;28;20053;-61
2023/08/21 07:43:43;;;;;;;17.45;3.58;;;15.50;99.90;;;;;;5048605;28;20045;-61
2023/08/21 07:46:15;;;;;;;14.57;3.40;;;15.60;99.90;;;;;;5046751;28;20076;-60
2023/08/21 07:48:45;;;;;;;11.20;3.65;;;15.60;99.90;;;;;;5048214;28;20385;-61
2023/08/21 07:51:13;;;;;;;18.02;4.07;;;15.70;99.90;;;;;;5047126;28;20048;-62
2023/08/21 07:53:40;;;;;;;10.75;3.60;;;15.80;99.90;;;;;;5038711;28;20048;-61
2023/08/21 07:56:08;;;;;;;10.80;3.97;;;15.90;99.90;;;;;;5036570;28;20049;-62
2023/08/21 07:58:36;;;;;;;8.55;3.40;;;16.00;99.90;;;;;;5040393;28;20052;-61
2023/08/21 08:01:04;;;;;;;12.60;3.47;;;16.10;99.90;;;;;;5035786;28;20436;-62
2023/08/21 08:03:35;;;;;;;8.80;2.70;;;16.20;99.90;;;;;;5038721;28;20040;-61
2023/08/21 08:06:03;;;;;;;9.65;3.42;;;16.30;99.90;;;;;;5027875;28;20045;-61
2023/08/21 08:08:33;;;;;;;9.77;3.33;;;16.30;99.90;;;;;;5036479;28;20056;-61
2023/08/21 08:11:03;;;;;;;18.33;3.58;;;16.40;99.90;;;;;;5046541;28;20060;-61
2023/08/21 08:13:32;;;;;;;15.32;3.97;;;16.50;99.90;;;;;;5030968;28;20045;-62
2023/08/21 08:16:00;;;;;;;12.57;3.65;;;16.50;99.90;;;;;;5028125;28;20045;-61
2023/08/21 08:18:28;;;;;;;8.13;3.33;;;16.60;99.90;;;;;;5047794;28;20487;-62
2023/08/21 08:20:56;;;;;;;13.63;3.33;;;16.70;99.90;;;;;;5047926;28;20052;-62
2023/08/21 08:23:24;;;;;;;7.97;3.20;;;16.80;99.90;;;;;;5046971;28;20045;-60
2023/08/21 08:25:51;;;;;;;15.43;3.10;;;16.90;99.90;;;;;;5040529;28;20060;-62
2023/08/21 08:28:19;;;;;;;9.60;2.85;;;17.00;99.90;;;;;;5037177;28;20197;-61
2023/08/21 08:30:47;;;;;;;12.63;2.38;;;17.10;99.90;;;;;;5047971;28;20049;-61
2023/08/21 08:33:15;;;;;;;8.25;2.75;;;17.20;99.90;;;;;;5046028;28;20477;-62
2023/08/21 08:35:43;;;;;;;10.95;3.75;;;17.30;99.90;;;;;;5046480;28;20041;-62
2023/08/21 08:38:11;;;;;;;13.15;2.40;;;17.30;99.90;;;;;;5047953;28;20052;-61
2023/08/21 08:40:44;;;;;;;9.15;2.88;;;17.40;99.90;;;;;;5056793;28;20423;-62
2023/08/21 08:43:13;;;;;;;8.55;2.42;;;17.50;99.90;;;;;;5051477;28;20523;-62
2023/08/21 08:45:41;;;;;;;4.15;1.77;;;17.60;99.90;;;;;;5044914;28;20045;-62
2023/08/21 08:48:10;;;;;;;10.85;2.17;;;17.70;99.90;;;;;;5036406;28;20049;-61
2023/08/21 08:50:39;;;;;;;5.95;1.92;;;17.80;99.90;;;;;;5046634;28;20037;-61
2023/08/21 08:53:08;;;;;;;2.60;1.70;;;18.00;99.90;;;;;;5045775;28;20056;-62
2023/08/21 08:55:45;;;;;;;11.57;2.20;;;18.10;99.90;;;;;;5041482;28;20049;-62
2023/08/21 08:58:12;;;;;;;9.65;2.35;;;18.10;99.90;;;;;;5050227;28;20059;-62
2023/08/21 09:00:40;;;;;;;6.03;2.17;;;18.20;99.90;;;;;;5038704;28;20057;-63
2023/08/21 09:03:10;;;;;;;7.20;2.40;;;18.20;99.90;;;;;;5036592;28;20528;-63
2023/08/21 09:05:40;;;;;;;8.52;2.63;;;18.20;99.90;;;;;;5047700;28;20048;-61
2023/08/21 09:08:11;;;;;;;6.40;2.28;;;18.20;99.90;;;;;;5054921;28;20085;-61
2023/08/21 09:10:40;;;;;;;7.03;2.50;;;18.10;99.90;;;;;;5046015;28;20041;-62
2023/08/21 09:13:14;;;;;;;5.25;2.00;;;18.10;99.90;;;;;;5044237;28;20048;-62
2023/08/21 09:15:47;;;;;;;11.23;3.33;;;18.10;99.90;;;;;;5046081;28;20045;-62
2023/08/21 09:18:15;;;;;;;10.77;2.70;;;18.20;99.90;;;;;;5030474;28;20045;-62
2023/08/21 09:20:43;;;;;;;11.02;2.53;;;18.30;99.90;;;;;;5043790;28;20080;-62
2023/08/21 09:23:21;;;;;;;8.00;2.05;;;18.40;99.90;;;;;;5052664;28;20060;-61
2023/08/21 09:25:49;;;;;;;4.10;1.65;;;18.50;99.90;;;;;;5028361;28;20528;-62
2023/08/21 09:28:21;;;;;;;6.03;1.80;;;18.60;99.90;;;;;;5043851;28;20048;-61
2023/08/21 09:30:51;;;;;;;7.68;1.90;;;18.70;99.90;;;;;;5029951;28;20060;-61
2023/08/21 09:33:22;;;;;;;8.70;1.95;;;18.90;99.90;;;;;;5034836;28;20282;-61
2023/08/21 09:35:53;;;;;;;;;;;19.20;99.90;;;;;;5040944;28;20048;-61
2023/08/21 09:38:22;;;;;;;5.25;1.98;;;19.30;99.90;;;;;;5039891;28;20165;-62
2023/08/21 09:40:54;;;;;;;7.20;3.63;;;19.50;99.90;;;;;;5041885;28;20059;-62
2023/08/21 09:43:24;;;;;;;5.60;1.90;;;19.60;99.90;;;;;;5034598;28;20042;-62
2023/08/21 09:45:55;;;;;;;6.73;1.50;;;19.70;99.90;;;;;;5026232;28;20080;-62
2023/08/21 09:48:29;;;;;;;7.63;1.83;;;19.70;99.90;;;;;;5041426;28;20053;-62
2023/08/21 09:50:57;;;;;;;8.38;1.95;;;19.60;99.90;;;;;;5047987;28;20056;-62
2023/08/21 09:53:25;;;;;;;7.95;2.13;;;19.60;99.90;;;;;;5046337;28;20053;-62
2023/08/21 09:56:04;;;;;;;6.88;1.80;;;19.50;99.90;;;;;;5069608;28;20048;-61
2023/08/21 09:58:32;;;;;;;7.57;1.80;;;19.40;99.90;;;;;;5042291;28;20059;-62
2023/08/21 10:01:02;;;;;;;8.30;1.98;;;19.40;99.90;;;;;;5048010;28;20196;-63
2023/08/21 10:03:31;;;;;;;;;;;19.40;99.90;;;;;;5046590;28;20041;-62
2023/08/21 10:06:00;;;;;;;5.68;2.47;;;19.40;99.90;;;;;;5048956;28;19921;-61
2023/08/21 10:08:30;;;;;;;4.35;1.55;;;19.50;99.90;;;;;;5044231;28;20047;-61
2023/08/21 10:10:59;;;;;;;5.25;1.63;;;19.50;99.90;;;;;;5033464;28;20044;-62
2023/08/21 10:13:33;;;;;;;8.73;1.77;;;19.60;99.90;;;;;;5028417;28;20045;-60
2023/08/21 10:16:01;;;;;;;;;;;19.70;99.90;;;;;;5030681;28;20231;-61
2023/08/21 10:18:33;;;;;;;10.20;1.95;;;19.90;99.90;;;;;;5041534;28;19920;-61
2023/08/21 10:21:16;;;;;;;6.10;1.77;;;20.20;99.90;;;;;;5050560;28;20049;-60
2023/08/21 10:23:51;;;;;;;5.35;2.10;;;20.50;99.90;;;;;;5049245;28;20049;-63
2023/08/21 10:26:21;;;;;;;8.15;1.70;;;20.70;99.90;;;;;;5047754;28;21733;-61
2023/08/21 10:28:50;;;;;;;8.10;1.85;;;20.80;99.90;;;;;;5045911;28;20047;-62
2023/08/21 10:31:43;;;;;;;15.18;2.25;;;20.80;99.90;;;;;;5030385;28;20515;-62
2023/08/21 10:34:13;;;;;;;5.20;1.75;;;20.90;99.90;;;;;;5041003;28;20374;-63
2023/08/21 10:36:44;;;;;;;6.25;2.13;;;20.90;99.90;;;;;;5048822;28;20053;-63
2023/08/21 10:39:23;;;;;;;4.22;1.70;;;20.90;99.90;;;;;;5049062;28;20045;-63
2023/08/21 10:42:14;;;;;;;14.13;2.28;;;20.80;99.90;;;;;;5050101;28;20048;-63
2023/08/21 10:45:00;;;;;;;17.15;2.42;;;20.70;99.90;;;;;;5047362;28;20053;-62
2023/08/21 10:47:28;;;;;;;5.93;1.83;;;20.70;99.90;;;;;;5045416;28;20049;-62
2023/08/21 10:50:06;;;;;;;14.25;2.70;;;20.80;99.90;;;;;;5037931;28;20041;-61
2023/08/21 10:52:41;;;;;;;6.67;1.90;;;20.80;99.90;;;;;;5068159;28;20047;-63
2023/08/21 10:55:11;;;;;;;5.95;1.88;;;20.90;99.90;;;;;;5049537;28;20049;-62
2023/08/21 10:57:41;;;;;;;4.78;1.90;;;20.90;99.90;;;;;;5048778;28;20045;-63
2023/08/21 11:00:12;;;;;;;;;;;21.00;99.90;;;;;;5060271;28;20049;-62
2023/08/21 11:02:43;;;;;;;7.63;1.60;;;21.00;99.90;;;;;;5068577;28;20295;-62
2023/08/21 11:05:12;;;;;;;4.68;1.42;;;21.20;99.90;;;;;;5050490;28;20041;-63
2023/08/21 11:07:45;;;;;;;5.20;1.30;;;21.40;99.90;;;;;;5049382;28;20049;-62
2023/08/21 11:10:16;;;;;;;4.47;1.75;;;21.60;99.90;;;;;;5055424;28;20239;-61
2023/08/21 11:12:55;;;;;;;4.75;1.40;;;21.70;99.90;;;;;;5062449;28;20508;-63
2023/08/21 11:15:28;;;;;;;7.32;1.40;;;21.70;99.90;;;;;;5042232;28;20041;-62
2023/08/21 11:18:01;;;;;;;5.03;1.40;;;21.70;99.90;;;;;;5047046;28;20056;-62
2023/08/21 11:20:33;;;;;;;4.20;1.13;;;21.70;99.90;;;;;;5048932;28;20048;-62
2023/08/21 11:23:06;;;;;;;6.60;1.45;;;21.70;99.90;;;;;;5056668;28;20052;-63
2023/08/21 11:25:39;;;;;;;6.25;1.70;;;21.70;99.90;;;;;;5049299;28;20068;-62
2023/08/21 11:28:08;;;;;;;6.68;1.60;;;21.70;99.90;;;;;;5048201;28;20056;-62
2023/08/21 11:30:36;;;;;;;9.15;1.50;;;21.70;99.90;;;;;;5042106;28;20060;-62
2023/08/21 11:33:09;;;;;;;8.50;1.50;;;21.70;99.90;;;;;;5060289;28;20056;-61
2023/08/21 11:35:38;;;;;;;7.35;1.13;;;21.70;99.90;;;;;;5049046;28;20044;-63
2023/08/21 11:38:17;;;;;;;3.45;1.17;;;21.80;99.90;;;;;;5031504;28;20420;-62
2023/08/21 11:40:56;;;;;;;6.78;1.30;;;21.90;99.90;;;;;;5058939;28;20051;-62
2023/08/21 11:43:38;;;;;;;11.03;1.00;;;22.00;99.90;;;;;;5057504;28;20421;-62
2023/08/21 11:46:07;;;;;;;4.97;1.13;;;22.30;99.90;;;;;;5031039;28;20042;-62
2023/08/21 11:48:37;;;;;;;3.83;1.00;;;22.50;99.90;;;;;;5040597;28;20048;-63
2023/08/21 11:51:06;;;;;;;8.77;1.50;;;22.80;99.90;;;;;;5049002;28;20452;-62
2023/08/21 11:53:39;;;;;;;10.15;1.52;;;23.10;99.90;;;;;;5048081;28;20045;-61
2023/08/21 11:56:15;;;;;;;5.43;2.03;;;23.50;99.90;;;;;;5048600;28;20052;-62
2023/08/21 11:58:46;;;;;;;3.65;1.27;;;23.70;99.90;;;;;;5048218;28;20045;-62
2023/08/21 12:01:18;;;;;;;5.00;1.42;;;24.00;99.90;;;;;;5061871;28;20502;-62
2023/08/21 12:03:53;;;;;;;6.03;1.42;;;24.30;99.90;;;;;;5038013;28;20468;-61
2023/08/21 12:06:22;;;;;;;4.78;1.10;;;24.40;99.90;;;;;;5026938;28;20046;-62
2023/08/21 12:08:50;;;;;;;2.28;0.80;;;24.30;99.90;;;;;;5026237;28;20436;-62
2023/08/21 12:11:18;;;;;;;8.05;1.23;;;24.00;99.90;;;;;;5028611;28;20053;-61
2023/08/21 12:13:46;;;;;;;6.05;0.98;;;23.90;99.90;;;;;;5043091;28;20427;-61
2023/08/21 12:16:14;;;;;;;7.68;1.42;;;23.80;99.90;;;;;;5035026;28;20417;-62
2023/08/21 12:18:41;;;;;;;4.45;1.33;;;23.70;99.90;;;;;;5041858;28;20056;-62
2023/08/21 12:21:09;;;;;;;4.10;1.00;;;23.40;99.90;;;;;;5047133;28;20060;-62
2023/08/21 12:23:37;;;;;;;3.90;1.00;;;23.30;99.90;;;;;;5051773;28;20052;-62
2023/08/21 12:26:05;;;;;;;9.55;1.40;;;23.20;99.90;;;;;;5068385;28;20064;-62
2023/08/21 12:28:33;;;;;;;3.63;0.90;;;23.10;99.90;;;;;;5056360;28;20476;-62
2023/08/21 12:31:01;;;;;;;4.63;1.10;;;23.00;99.90;;;;;;5034198;28;20053;-64
2023/08/21 12:33:29;;;;;;;1.60;0.88;;;22.90;99.90;;;;;;5042775;28;20052;-64
2023/08/21 12:35:57;;;;;;;6.35;1.10;;;23.00;99.90;;;;;;5043745;28;20396;-64
2023/08/21 12:38:28;;;;;;;7.43;0.80;;;22.90;99.90;;;;;;5047855;28;20053;-63
2023/08/21 12:40:57;;;;;;;4.07;0.60;;;22.90;99.90;;;;;;5059508;28;20041;-62
2023/08/21 12:43:25;;;;;;;0.82;0.60;;;23.20;99.90;;;;;;5046390;28;20053;-63
2023/08/21 12:45:53;;;;;;;5.30;0.90;;;23.40;99.90;;;;;;5041070;28;20056;-63
2023/08/21 12:48:20;;;;;;;2.10;0.70;;;23.40;99.90;;;;;;5037580;28;20056;-62
2023/08/21 12:50:48;;;;;;;5.82;1.13;;;23.30;99.90;;;;;;5038576;28;20389;-62
2023/08/21 12:53:16;;;;;;;2.70;0.73;;;23.10;99.90;;;;;;5037014;28;20062;-62
2023/08/21 12:55:44;;;;;;;3.95;0.52;;;22.90;99.90;;;;;;5054784;28;20044;-64